Geneva, Iowa
Current Conditions -  °F | °C
As of 7:15 AM on Thursday 30 Oct 2014 (Local Time) from KIFA Reporting Station
Clear Clear  
Wind Chill: 33°   Ceiling: Unl
Heat Index: 37°   Visibility: 10mi
Dew Point: 34°   Wind: 6mph
Humidity: 88%   Direction: 120°ESE
Pressure: 30.02"   Gusts: NA
Location:  42.68°N, 93.13°W
Report Text: KIFA 301215Z AUTO 12005KT 10SM CLR 03/01 A3002 RMK AO2 T00300012
Loading
Personal Weather Stations






























Interactive Weather Map
Tropical Storm Tracking
New forecast layout! Learn more

10-Day Weather Forecast

Advertisements
Track Severe Weather on mobile